createdAt,value
2022-10-08T00:01:56.080Z,9.35
2022-10-08T00:04:25.572Z,9.30
2022-10-08T00:06:54.251Z,9.33
2022-10-08T00:09:23.724Z,9.36
2022-10-08T00:11:52.361Z,9.27
2022-10-08T00:14:23.593Z,9.23
2022-10-08T00:16:52.213Z,9.18
2022-10-08T00:19:21.709Z,9.11
2022-10-08T00:21:53.415Z,9.25
2022-10-08T00:24:21.422Z,9.38
2022-10-08T00:26:52.760Z,9.15
2022-10-08T00:29:23.049Z,8.95
2022-10-08T00:31:52.750Z,9.26
2022-10-08T00:34:24.057Z,9.20
2022-10-08T00:36:56.228Z,9.14
2022-10-08T00:39:26.156Z,8.96
2022-10-08T00:41:56.717Z,9.18
2022-10-08T00:44:58.739Z,9.14
2022-10-08T00:47:33.378Z,9.13
2022-10-08T00:50:35.821Z,9.15
2022-10-08T00:53:09.990Z,9.13
2022-10-08T00:55:43.812Z,9.11
2022-10-08T00:58:21.411Z,8.82
2022-10-08T01:00:51.007Z,9.01
2022-10-08T01:03:20.557Z,8.72
2022-10-08T01:06:24.894Z,9.11
2022-10-08T01:09:30.032Z,9.13
2022-10-08T01:12:41.711Z,9.23
2022-10-08T01:15:16.265Z,8.81
2022-10-08T01:18:14.122Z,8.83
2022-10-08T01:21:01.364Z,8.96
2022-10-08T01:24:08.693Z,8.70
2022-10-08T01:27:19.164Z,8.77
2022-10-08T01:29:51.637Z,8.61
2022-10-08T01:32:30.212Z,8.69
2022-10-08T01:35:22.076Z,8.69
2022-10-08T01:37:56.255Z,8.78
2022-10-08T01:40:35.517Z,8.68
2022-10-08T01:43:10.292Z,8.46
2022-10-08T01:45:51.592Z,8.74
2022-10-08T01:48:35.965Z,8.61
2022-10-08T01:51:33.036Z,8.70
2022-10-08T01:54:10.164Z,8.62
2022-10-08T01:56:43.217Z,8.52
2022-10-08T01:59:24.686Z,8.59
2022-10-08T02:02:10.436Z,8.26
2022-10-08T02:04:39.228Z,8.12
2022-10-08T02:07:16.855Z,7.85
2022-10-08T02:09:52.514Z,7.96
2022-10-08T02:12:25.558Z,8.02
2022-10-08T02:14:58.034Z,8.01
2022-10-08T02:18:11.529Z,8.32
2022-10-08T02:20:56.681Z,8.17
2022-10-08T02:24:21.524Z,8.12
2022-10-08T02:26:59.336Z,8.38
2022-10-08T02:29:50.048Z,8.32
2022-10-08T02:32:32.897Z,8.24
2022-10-08T02:35:25.403Z,8.08
2022-10-08T02:38:14.268Z,7.91
2022-10-08T02:40:50.704Z,7.78
2022-10-08T02:43:29.531Z,8.09
2022-10-08T02:46:21.705Z,8.25
2022-10-08T02:49:25.670Z,8.36
2022-10-08T02:51:55.857Z,8.28
2022-10-08T02:54:25.488Z,8.28
2022-10-08T02:57:08.516Z,8.42
2022-10-08T02:59:38.663Z,8.56
2022-10-08T03:02:08.188Z,8.34
2022-10-08T03:04:54.707Z,8.20
2022-10-08T03:07:26.320Z,8.33
2022-10-08T03:09:57.688Z,8.18
2022-10-08T03:12:27.411Z,8.31
2022-10-08T03:14:57.097Z,8.26
2022-10-08T03:17:34.701Z,8.19
2022-10-08T03:20:06.542Z,8.05
2022-10-08T03:22:36.060Z,7.94
2022-10-08T03:25:06.475Z,7.87
2022-10-08T03:27:35.994Z,7.78
2022-10-08T03:30:06.568Z,7.90
2022-10-08T03:32:36.555Z,7.89
2022-10-08T03:35:06.392Z,7.98
2022-10-08T03:37:35.975Z,7.74
2022-10-08T03:40:06.456Z,7.79
2022-10-08T03:42:35.820Z,7.52
2022-10-08T03:45:06.561Z,7.57
2022-10-08T03:47:36.265Z,7.45
2022-10-08T03:50:06.048Z,7.53
2022-10-08T03:52:35.468Z,7.41
2022-10-08T03:55:05.564Z,7.52
2022-10-08T03:57:34.526Z,7.63
2022-10-08T04:00:05.250Z,7.51
2022-10-08T04:02:34.100Z,7.79
2022-10-08T04:05:02.783Z,7.86
2022-10-08T04:07:31.439Z,7.55
2022-10-08T04:10:00.079Z,7.70
2022-10-08T04:12:30.164Z,7.76
2022-10-08T04:14:58.791Z,7.85
2022-10-08T04:17:28.199Z,8.01
2022-10-08T04:19:57.379Z,7.63
2022-10-08T04:22:26.810Z,7.63
2022-10-08T04:24:56.265Z,7.57
2022-10-08T04:27:25.797Z,7.67
2022-10-08T04:29:55.179Z,7.62
2022-10-08T04:32:24.680Z,7.42
2022-10-08T04:34:54.180Z,7.68
2022-10-08T04:37:24.241Z,7.52
2022-10-08T04:39:53.632Z,7.63
2022-10-08T04:42:23.085Z,7.82
2022-10-08T04:44:52.586Z,7.44
2022-10-08T04:47:22.037Z,7.66
2022-10-08T04:49:51.503Z,7.58
2022-10-08T04:52:20.996Z,7.66
2022-10-08T04:54:50.458Z,7.65
2022-10-08T04:57:19.926Z,7.74
2022-10-08T05:00:13.087Z,7.82
2022-10-08T05:02:38.106Z,7.58
2022-10-08T05:05:08.487Z,7.75
2022-10-08T05:07:37.999Z,7.52
2022-10-08T05:10:07.396Z,7.64
2022-10-08T05:12:36.859Z,7.60
2022-10-08T05:15:07.870Z,7.94
2022-10-08T05:17:35.933Z,7.86
2022-10-08T05:20:05.427Z,7.99
2022-10-08T05:22:34.319Z,7.91
2022-10-08T05:25:04.097Z,7.78
2022-10-08T05:27:35.016Z,7.95
2022-10-08T05:30:05.621Z,7.91
2022-10-08T05:32:34.194Z,7.81
2022-10-08T05:35:02.860Z,7.98
2022-10-08T05:37:33.416Z,8.08
2022-10-08T05:40:02.853Z,7.99
2022-10-08T05:42:32.333Z,8.01
2022-10-08T05:45:01.967Z,8.07
2022-10-08T05:47:31.590Z,8.07
2022-10-08T05:50:01.040Z,8.32
2022-10-08T05:52:31.027Z,8.16
2022-10-08T05:55:00.669Z,8.45
2022-10-08T05:57:30.105Z,8.66
2022-10-08T05:59:59.618Z,8.66
2022-10-08T06:02:29.136Z,8.56
2022-10-08T06:04:58.735Z,8.86
2022-10-08T06:07:28.272Z,9.12
2022-10-08T06:09:57.743Z,9.37
2022-10-08T06:12:26.193Z,9.59
2022-10-08T06:14:55.641Z,9.57
2022-10-08T06:17:24.328Z,9.96
2022-10-08T06:19:52.963Z,9.74
2022-10-08T06:22:22.443Z,9.85
2022-10-08T06:24:51.127Z,9.92
2022-10-08T06:27:20.552Z,10.16
2022-10-08T06:29:49.185Z,10.33
2022-10-08T06:32:18.624Z,10.58
2022-10-08T06:34:48.042Z,10.86
2022-10-08T06:37:16.747Z,10.66
2022-10-08T06:39:48.428Z,10.79
2022-10-08T06:42:18.857Z,11.24
2022-10-08T06:44:47.571Z,13.69
2022-10-08T06:47:16.234Z,14.99
2022-10-08T06:49:45.689Z,15.31
2022-10-08T06:52:14.210Z,15.25
2022-10-08T06:54:43.710Z,15.30
2022-10-08T06:57:12.306Z,13.41
2022-10-08T06:59:40.839Z,12.74
2022-10-08T07:02:11.874Z,12.80
2022-10-08T07:04:41.279Z,12.92
2022-10-08T07:07:09.856Z,12.66
2022-10-08T07:09:39.265Z,12.90
2022-10-08T07:12:07.884Z,12.72
2022-10-08T07:14:36.476Z,12.90
2022-10-08T07:17:05.866Z,13.31
2022-10-08T07:19:34.463Z,13.22
2022-10-08T07:22:03.076Z,13.38
2022-10-08T07:24:31.708Z,13.64
2022-10-08T07:27:01.440Z,13.88
2022-10-08T07:29:30.110Z,13.86
2022-10-08T07:31:59.561Z,13.77
2022-10-08T07:34:29.643Z,13.87
2022-10-08T07:36:58.321Z,13.97
2022-10-08T07:39:27.736Z,14.37
2022-10-08T07:41:56.457Z,14.41
2022-10-08T07:44:25.103Z,14.52
2022-10-08T07:46:54.200Z,14.36
2022-10-08T07:49:23.658Z,14.78
2022-10-08T07:51:52.195Z,15.10
2022-10-08T07:54:21.280Z,15.12
2022-10-08T07:56:50.466Z,15.00
2022-10-08T07:59:19.079Z,15.12
2022-10-08T08:01:48.549Z,15.35
2022-10-08T08:04:17.150Z,15.97
2022-10-08T08:06:48.507Z,15.64
2022-10-08T08:09:18.529Z,15.83
2022-10-08T08:11:49.074Z,15.84
2022-10-08T08:14:18.543Z,16.49
2022-10-08T08:16:50.865Z,16.30
2022-10-08T08:19:19.625Z,16.62
2022-10-08T08:21:48.266Z,16.37
2022-10-08T08:24:16.966Z,16.67
2022-10-08T08:26:45.948Z,16.74
2022-10-08T08:29:19.597Z,16.63
2022-10-08T08:31:50.190Z,16.58
2022-10-08T08:34:24.502Z,17.14
2022-10-08T08:36:54.731Z,17.18
2022-10-08T08:39:26.665Z,17.48
2022-10-08T08:42:39.774Z,17.28
2022-10-08T08:45:46.479Z,17.63
2022-10-08T08:48:28.506Z,17.82
2022-10-08T08:50:59.628Z,17.79
2022-10-08T08:53:28.890Z,17.60
2022-10-08T08:56:05.624Z,17.85
2022-10-08T08:59:21.307Z,17.63
2022-10-08T09:01:54.537Z,17.61
2022-10-08T09:04:50.904Z,17.77
2022-10-08T09:07:26.830Z,17.68
2022-10-08T09:09:59.425Z,17.84
2022-10-08T09:12:39.751Z,17.82
2022-10-08T09:15:34.023Z,18.00
2022-10-08T09:18:05.659Z,17.81
2022-10-08T09:20:40.128Z,18.11
2022-10-08T09:23:22.106Z,18.32
2022-10-08T09:26:10.677Z,18.03
2022-10-08T09:28:58.670Z,18.33
2022-10-08T09:31:48.123Z,18.35
2022-10-08T09:34:19.186Z,18.17
2022-10-08T09:37:03.983Z,18.33
2022-10-08T09:39:37.532Z,18.77
2022-10-08T09:42:17.842Z,18.72
2022-10-08T09:44:59.132Z,18.87
2022-10-08T09:47:30.937Z,18.46
2022-10-08T09:50:19.646Z,18.58
2022-10-08T09:52:51.311Z,18.64
2022-10-08T09:55:29.476Z,18.57
2022-10-08T09:58:00.899Z,19.04
2022-10-08T10:00:38.195Z,19.28
2022-10-08T10:03:16.729Z,19.32
2022-10-08T10:05:55.679Z,19.38
2022-10-08T10:08:56.315Z,18.96
2022-10-08T10:11:49.679Z,19.22
2022-10-08T10:14:33.609Z,19.72
2022-10-08T10:17:48.165Z,19.17
2022-10-08T10:20:42.403Z,19.38
2022-10-08T10:23:44.193Z,19.38
2022-10-08T10:26:27.654Z,19.55
2022-10-08T10:29:10.844Z,19.16
2022-10-08T10:32:08.337Z,19.12
2022-10-08T10:34:40.696Z,19.16
2022-10-08T10:37:21.125Z,19.71
2022-10-08T10:40:30.031Z,19.74
2022-10-08T10:43:39.795Z,19.43
2022-10-08T10:46:43.100Z,19.91
2022-10-08T10:49:27.154Z,19.85
2022-10-08T10:52:19.649Z,19.81
2022-10-08T10:55:25.191Z,19.58
2022-10-08T10:58:22.913Z,20.00
2022-10-08T11:01:36.348Z,20.08
2022-10-08T11:05:01.873Z,19.84
2022-10-08T11:08:50.879Z,19.86
2022-10-08T11:11:38.507Z,19.86
2022-10-08T11:15:02.960Z,20.01
2022-10-08T11:18:15.417Z,19.65
2022-10-08T11:21:34.905Z,19.81
2022-10-08T11:24:51.749Z,20.06
2022-10-08T11:27:58.525Z,20.16
2022-10-08T11:31:24.026Z,20.11
2022-10-08T11:33:56.691Z,20.18
2022-10-08T11:36:53.949Z,20.10
2022-10-08T11:39:43.494Z,20.38
2022-10-08T11:42:56.819Z,20.43
2022-10-08T11:45:26.120Z,20.33
2022-10-08T11:47:58.346Z,20.47
2022-10-08T11:50:29.195Z,20.99
2022-10-08T11:53:15.360Z,20.77
2022-10-08T11:55:59.889Z,20.81
2022-10-08T11:58:33.522Z,20.71
2022-10-08T12:01:07.717Z,20.91
2022-10-08T12:03:43.018Z,21.01
2022-10-08T12:06:25.008Z,20.97
2022-10-08T12:08:59.799Z,20.69
2022-10-08T12:11:40.040Z,20.72
2022-10-08T12:14:17.379Z,20.98
2022-10-08T12:16:48.971Z,20.44
2022-10-08T12:19:35.809Z,20.81
2022-10-08T12:22:16.721Z,20.69
2022-10-08T12:24:49.994Z,20.61
2022-10-08T12:27:21.817Z,20.94
2022-10-08T12:30:17.299Z,21.07
2022-10-08T12:32:46.149Z,20.85
2022-10-08T12:35:38.602Z,21.09
2022-10-08T12:38:16.238Z,20.94
2022-10-08T12:41:24.917Z,20.90
2022-10-08T12:44:42.846Z,20.85
2022-10-08T12:48:04.042Z,21.11
2022-10-08T12:50:53.759Z,20.77
2022-10-08T12:53:22.515Z,20.66
2022-10-08T12:55:56.539Z,20.80
2022-10-08T12:58:33.976Z,20.67
2022-10-08T13:01:05.347Z,20.85
2022-10-08T13:03:35.781Z,20.89
2022-10-08T13:06:30.511Z,20.71
2022-10-08T13:09:25.380Z,20.79
2022-10-08T13:12:02.147Z,20.71
2022-10-08T13:14:37.731Z,20.69
2022-10-08T13:17:25.350Z,20.99
2022-10-08T13:20:15.074Z,20.91
2022-10-08T13:22:44.039Z,20.88
2022-10-08T13:25:43.366Z,20.94
2022-10-08T13:28:41.682Z,20.85
2022-10-08T13:31:24.301Z,21.11
2022-10-08T13:33:53.045Z,21.08
2022-10-08T13:36:23.909Z,20.89
2022-10-08T13:38:52.786Z,20.96
2022-10-08T13:41:25.330Z,20.92
2022-10-08T13:43:54.004Z,20.68
2022-10-08T13:46:22.425Z,20.80
2022-10-08T13:48:50.879Z,20.56
2022-10-08T13:51:19.550Z,20.52
2022-10-08T13:53:47.945Z,20.68
2022-10-08T13:56:18.308Z,20.22
2022-10-08T13:58:46.826Z,20.25
2022-10-08T14:01:15.484Z,20.32
2022-10-08T14:03:44.062Z,20.17
2022-10-08T14:06:12.650Z,20.13
2022-10-08T14:08:42.105Z,20.08
2022-10-08T14:11:11.039Z,19.93
2022-10-08T14:13:39.613Z,19.90
2022-10-08T14:16:10.078Z,19.98
2022-10-08T14:18:38.899Z,20.00
2022-10-08T14:21:07.678Z,19.95
2022-10-08T14:23:36.591Z,19.79
2022-10-08T14:26:05.360Z,19.76
2022-10-08T14:28:33.275Z,19.84
2022-10-08T14:31:01.992Z,19.79
2022-10-08T14:33:29.690Z,19.79
2022-10-08T14:35:59.158Z,19.85
2022-10-08T14:38:32.942Z,19.61
2022-10-08T14:41:04.313Z,19.56
2022-10-08T14:43:32.863Z,19.59
2022-10-08T14:46:01.667Z,19.48
2022-10-08T14:48:30.299Z,19.44
2022-10-08T14:50:59.129Z,19.51
2022-10-08T14:53:28.135Z,19.42
2022-10-08T14:56:11.485Z,19.30
2022-10-08T14:58:41.852Z,19.24
2022-10-08T15:01:10.600Z,19.18
2022-10-08T15:03:39.205Z,19.10
2022-10-08T15:06:08.121Z,19.07
2022-10-08T15:08:36.677Z,18.96
2022-10-08T15:11:05.425Z,19.04
2022-10-08T15:13:34.136Z,19.05
2022-10-08T15:16:03.055Z,18.91
2022-10-08T15:18:33.138Z,18.75
2022-10-08T15:21:01.815Z,18.56
2022-10-08T15:23:30.640Z,18.85
2022-10-08T15:26:06.769Z,18.73
2022-10-08T15:28:39.423Z,18.27
2022-10-08T15:31:17.774Z,18.15
2022-10-08T15:33:49.923Z,18.17
2022-10-08T15:36:33.701Z,18.03
2022-10-08T15:39:18.090Z,17.77
2022-10-08T15:41:51.668Z,17.72
2022-10-08T15:44:27.595Z,17.48
2022-10-08T15:47:11.661Z,17.36
2022-10-08T15:49:45.822Z,17.17
2022-10-08T15:52:21.229Z,17.14
2022-10-08T15:54:49.881Z,17.11
2022-10-08T15:57:19.698Z,17.01
2022-10-08T15:59:49.115Z,16.87
2022-10-08T16:02:20.265Z,16.68
2022-10-08T16:04:49.400Z,16.78
2022-10-08T16:07:18.066Z,16.68
2022-10-08T16:09:47.066Z,16.53
2022-10-08T16:12:15.738Z,16.42
2022-10-08T16:14:44.401Z,16.39
2022-10-08T16:17:14.421Z,16.13
2022-10-08T16:19:43.245Z,16.10
2022-10-08T16:22:11.874Z,16.03
2022-10-08T16:24:40.556Z,16.07
2022-10-08T16:27:09.351Z,15.82
2022-10-08T16:29:39.270Z,15.87
2022-10-08T16:32:11.060Z,15.72
2022-10-08T16:34:44.788Z,15.62
2022-10-08T16:37:14.554Z,15.48
2022-10-08T16:39:46.692Z,15.33
2022-10-08T16:42:14.420Z,15.18
2022-10-08T16:44:42.153Z,15.10
2022-10-08T16:47:12.265Z,15.20
2022-10-08T16:49:42.283Z,14.97
2022-10-08T16:52:11.915Z,15.02
2022-10-08T16:54:39.918Z,14.94
2022-10-08T16:57:11.287Z,14.94
2022-10-08T16:59:42.660Z,14.98
2022-10-08T17:02:14.075Z,14.72
2022-10-08T17:04:43.807Z,14.79
2022-10-08T17:07:13.377Z,14.66
2022-10-08T17:09:43.045Z,14.62
2022-10-08T17:12:16.515Z,14.52
2022-10-08T17:14:49.263Z,14.54
2022-10-08T17:17:20.683Z,14.63
2022-10-08T17:19:52.135Z,14.41
2022-10-08T17:22:23.484Z,14.46
2022-10-08T17:24:54.975Z,14.37
2022-10-08T17:27:26.358Z,14.28
2022-10-08T17:29:57.901Z,14.33
2022-10-08T17:32:29.488Z,14.16
2022-10-08T17:34:57.299Z,13.82
2022-10-08T17:37:25.077Z,14.02
2022-10-08T17:39:54.698Z,13.67
2022-10-08T17:42:26.081Z,13.71
2022-10-08T17:44:55.670Z,13.76
2022-10-08T17:47:29.216Z,13.83
2022-10-08T17:49:59.018Z,13.58
2022-10-08T17:52:26.813Z,13.77
2022-10-08T17:54:56.321Z,13.31
2022-10-08T17:57:24.119Z,13.51
2022-10-08T17:59:55.531Z,13.58
2022-10-08T18:02:23.306Z,13.63
2022-10-08T18:04:51.087Z,13.57
2022-10-08T18:07:20.581Z,13.39
2022-10-08T18:09:50.147Z,13.32
2022-10-08T18:12:19.718Z,13.36
2022-10-08T18:14:49.385Z,13.33
2022-10-08T18:17:18.915Z,13.38
2022-10-08T18:19:48.409Z,13.52
2022-10-08T18:22:21.360Z,13.57
2022-10-08T18:24:51.053Z,13.58
2022-10-08T18:27:20.565Z,13.56
2022-10-08T18:29:48.350Z,13.38
2022-10-08T18:32:17.906Z,13.32
2022-10-08T18:34:47.453Z,13.16
2022-10-08T18:37:15.197Z,13.25
2022-10-08T18:39:44.720Z,12.95
2022-10-08T18:42:15.442Z,12.91
2022-10-08T18:44:43.201Z,12.99
2022-10-08T18:47:12.703Z,12.98
2022-10-08T18:49:40.458Z,13.16
2022-10-08T18:52:08.285Z,13.07
2022-10-08T18:54:37.779Z,13.03
2022-10-08T18:57:09.099Z,12.94
2022-10-08T18:59:37.803Z,12.77
2022-10-08T19:02:09.657Z,12.64
2022-10-08T19:04:39.546Z,12.67
2022-10-08T19:07:09.216Z,12.74
2022-10-08T19:09:38.798Z,12.45
2022-10-08T19:12:08.750Z,12.60
2022-10-08T19:14:36.590Z,12.48
2022-10-08T19:17:06.152Z,12.35
2022-10-08T19:19:33.950Z,12.25
2022-10-08T19:22:03.493Z,12.36
2022-10-08T19:24:32.221Z,12.28
2022-10-08T19:27:00.252Z,12.25
2022-10-08T19:29:33.390Z,12.16
2022-10-08T19:32:01.359Z,12.08
2022-10-08T19:34:30.948Z,12.17
2022-10-08T19:37:02.404Z,11.90
2022-10-08T19:39:33.734Z,11.74
2022-10-08T19:42:03.382Z,11.63
2022-10-08T19:44:32.853Z,11.85
2022-10-08T19:47:04.087Z,11.99
2022-10-08T19:49:33.732Z,11.64
2022-10-08T19:52:03.445Z,11.47
2022-10-08T19:54:33.221Z,11.35
2022-10-08T19:57:02.751Z,11.60
2022-10-08T19:59:30.710Z,11.43
2022-10-08T20:01:58.516Z,11.48
2022-10-08T20:04:28.101Z,11.46
2022-10-08T20:07:00.928Z,11.54
2022-10-08T20:09:28.920Z,11.30
2022-10-08T20:11:58.563Z,11.20
2022-10-08T20:14:26.305Z,11.41
2022-10-08T20:16:55.801Z,11.28
2022-10-08T20:19:25.630Z,11.54
2022-10-08T20:21:55.976Z,11.47
2022-10-08T20:24:25.579Z,11.45
2022-10-08T20:26:55.113Z,11.57
2022-10-08T20:29:27.427Z,11.41
2022-10-08T20:32:00.856Z,11.55
2022-10-08T20:34:32.973Z,11.38
2022-10-08T20:37:02.603Z,11.35
2022-10-08T20:39:32.172Z,11.27
2022-10-08T20:42:01.919Z,11.24
2022-10-08T20:44:31.520Z,11.05
2022-10-08T20:47:01.925Z,11.12
2022-10-08T20:49:36.125Z,11.11
2022-10-08T20:52:05.616Z,11.46
2022-10-08T20:54:35.424Z,11.47
2022-10-08T20:57:06.190Z,11.33
2022-10-08T20:59:35.813Z,11.20
2022-10-08T21:02:06.676Z,11.29
2022-10-08T21:04:36.180Z,11.18
2022-10-08T21:07:03.920Z,11.21
2022-10-08T21:09:33.495Z,11.05
2022-10-08T21:12:03.013Z,11.31
2022-10-08T21:14:32.590Z,11.10
2022-10-08T21:17:02.023Z,11.06
2022-10-08T21:19:31.448Z,11.40
2022-10-08T21:22:01.087Z,10.86
2022-10-08T21:24:31.073Z,10.92
2022-10-08T21:27:00.623Z,10.92
2022-10-08T21:29:30.285Z,11.11
2022-10-08T21:32:00.816Z,11.14
2022-10-08T21:34:30.462Z,11.25
2022-10-08T21:37:00.006Z,11.49
2022-10-08T21:39:29.429Z,11.60
2022-10-08T21:41:58.112Z,11.48
2022-10-08T21:44:27.601Z,11.28
2022-10-08T21:46:56.202Z,11.50
2022-10-08T21:49:26.580Z,11.62
2022-10-08T21:51:56.170Z,11.39
2022-10-08T21:54:25.634Z,11.51
2022-10-08T21:56:55.414Z,11.53
2022-10-08T21:59:24.151Z,11.34
2022-10-08T22:01:53.631Z,11.36
2022-10-08T22:04:25.501Z,11.18
2022-10-08T22:06:59.925Z,11.29
2022-10-08T22:09:34.711Z,11.51
2022-10-08T22:12:04.524Z,11.75
2022-10-08T22:14:33.146Z,11.37
2022-10-08T22:17:01.757Z,11.40
2022-10-08T22:19:30.585Z,11.48
2022-10-08T22:22:00.538Z,11.25
2022-10-08T22:24:30.041Z,11.05
2022-10-08T22:26:59.511Z,11.14
2022-10-08T22:29:28.124Z,10.92
2022-10-08T22:31:56.776Z,10.74
2022-10-08T22:34:25.513Z,11.25
2022-10-08T22:36:54.148Z,11.19
2022-10-08T22:39:23.647Z,11.19
2022-10-08T22:41:52.279Z,11.29
2022-10-08T22:44:20.984Z,11.16
2022-10-08T22:46:49.634Z,10.90
2022-10-08T22:49:18.288Z,10.82
2022-10-08T22:51:46.910Z,11.02
2022-10-08T22:54:16.540Z,11.14
2022-10-08T22:56:45.117Z,10.80
2022-10-08T22:59:14.562Z,10.95
2022-10-08T23:01:43.183Z,11.05
2022-10-08T23:04:12.642Z,11.13
2022-10-08T23:06:41.319Z,11.26
2022-10-08T23:09:13.436Z,11.19
2022-10-08T23:11:42.922Z,11.09
2022-10-08T23:14:12.478Z,11.23
2022-10-08T23:16:41.961Z,10.98
2022-10-08T23:19:12.438Z,10.99
2022-10-08T23:21:44.259Z,11.24
2022-10-08T23:24:13.874Z,11.13
2022-10-08T23:26:42.582Z,11.18
2022-10-08T23:29:12.105Z,11.29
2022-10-08T23:31:41.716Z,11.25
2022-10-08T23:34:10.500Z,11.16
2022-10-08T23:36:43.955Z,11.23
2022-10-08T23:39:17.230Z,11.14
2022-10-08T23:41:46.657Z,11.13
2022-10-08T23:44:16.114Z,11.14
2022-10-08T23:46:45.494Z,11.22
2022-10-08T23:49:14.934Z,11.01
2022-10-08T23:51:44.401Z,11.02
2022-10-08T23:54:13.813Z,11.20
2022-10-08T23:56:42.444Z,11.14
2022-10-08T23:59:11.182Z,11.14
